sensor_id;sensor_type;location;lat;lon;timestamp;pressure;altitude;pressure_sealevel;temperature;humidity
43878;BME280;29815;48.184;11.268;2023-08-21T00:01:49;96075.47;;;18.70;100.00
43878;BME280;29815;48.184;11.268;2023-08-21T00:04:19;96077.22;;;18.66;100.00
43878;BME280;29815;48.184;11.268;2023-08-21T00:06:49;96073.00;;;18.59;100.00
43878;BME280;29815;48.184;11.268;2023-08-21T00:09:19;96070.69;;;18.53;100.00
43878;BME280;29815;48.184;11.268;2023-08-21T00:11:50;96073.72;;;18.51;100.00
43878;BME280;29815;48.184;11.268;2023-08-21T00:14:20;96071.09;;;18.46;100.00
43878;BME280;29815;48.184;11.268;2023-08-21T00:16:49;96067.34;;;18.42;100.00
43878;BME280;29815;48.184;11.268;2023-08-21T00:19:20;96077.56;;;18.37;100.00
43878;BME280;29815;48.184;11.268;2023-08-21T00:21:49;96070.34;;;18.32;100.00
43878;BME280;29815;48.184;11.268;2023-08-21T00:24:19;96062.94;;;18.33;100.00
43878;BME280;29815;48.184;11.268;2023-08-21T00:26:50;96063.75;;;18.33;100.00
43878;BME280;29815;48.184;11.268;2023-08-21T00:29:20;96067.09;;;18.30;100.00
43878;BME280;29815;48.184;11.268;2023-08-21T00:31:49;96069.31;;;18.28;100.00
43878;BME280;29815;48.184;11.268;2023-08-21T00:34:22;96064.69;;;18.29;100.00
43878;BME280;29815;48.184;11.268;2023-08-21T00:36:51;96065.00;;;18.27;100.00
43878;BME280;29815;48.184;11.268;2023-08-21T00:39:22;96068.00;;;18.25;100.00
43878;BME280;29815;48.184;11.268;2023-08-21T00:41:53;96071.03;;;18.24;100.00
43878;BME280;29815;48.184;11.268;2023-08-21T00:44:22;96069.53;;;18.18;100.00
43878;BME280;29815;48.184;11.268;2023-08-21T00:46:52;96068.22;;;18.15;100.00
43878;BME280;29815;48.184;11.268;2023-08-21T00:49:22;96066.09;;;18.12;100.00
43878;BME280;29815;48.184;11.268;2023-08-21T00:51:51;96056.63;;;18.10;100.00
43878;BME280;29815;48.184;11.268;2023-08-21T00:54:22;96053.91;;;18.10;100.00
43878;BME280;29815;48.184;11.268;2023-08-21T00:56:54;96059.84;;;18.12;100.00
43878;BME280;29815;48.184;11.268;2023-08-21T00:59:24;96056.03;;;18.13;100.00
43878;BME280;29815;48.184;11.268;2023-08-21T01:01:53;96051.06;;;18.15;100.00
43878;BME280;29815;48.184;11.268;2023-08-21T01:04:23;96054.72;;;18.10;100.00
43878;BME280;29815;48.184;11.268;2023-08-21T01:06:53;96046.66;;;18.05;100.00
43878;BME280;29815;48.184;11.268;2023-08-21T01:09:29;96049.19;;;18.02;100.00
43878;BME280;29815;48.184;11.268;2023-08-21T01:12:14;96053.31;;;17.99;100.00
43878;BME280;29815;48.184;11.268;2023-08-21T01:14:57;96048.78;;;17.95;100.00
43878;BME280;29815;48.184;11.268;2023-08-21T01:17:29;96049.41;;;17.91;100.00
43878;BME280;29815;48.184;11.268;2023-08-21T01:20:00;96060.09;;;17.88;100.00
43878;BME280;29815;48.184;11.268;2023-08-21T01:22:36;96054.13;;;17.86;100.00
43878;BME280;29815;48.184;11.268;2023-08-21T01:25:09;96062.09;;;17.82;100.00
43878;BME280;29815;48.184;11.268;2023-08-21T01:27:42;96059.97;;;17.79;100.00
43878;BME280;29815;48.184;11.268;2023-08-21T01:30:13;96064.75;;;17.74;100.00
43878;BME280;29815;48.184;11.268;2023-08-21T01:32:56;96060.41;;;17.73;100.00
43878;BME280;29815;48.184;11.268;2023-08-21T01:35:30;96059.28;;;17.74;100.00
43878;BME280;29815;48.184;11.268;2023-08-21T01:38:02;96063.13;;;17.73;100.00
43878;BME280;29815;48.184;11.268;2023-08-21T01:40:34;96066.16;;;17.71;100.00
43878;BME280;29815;48.184;11.268;2023-08-21T01:43:04;96067.25;;;17.70;100.00
43878;BME280;29815;48.184;11.268;2023-08-21T01:45:33;96068.66;;;17.68;100.00
43878;BME280;29815;48.184;11.268;2023-08-21T01:48:03;96060.81;;;17.66;100.00
43878;BME280;29815;48.184;11.268;2023-08-21T01:50:33;96069.25;;;17.65;100.00
43878;BME280;29815;48.184;11.268;2023-08-21T01:53:03;96067.13;;;17.62;100.00
43878;BME280;29815;48.184;11.268;2023-08-21T01:55:34;96065.50;;;17.60;100.00
43878;BME280;29815;48.184;11.268;2023-08-21T01:58:04;96064.69;;;17.60;100.00
43878;BME280;29815;48.184;11.268;2023-08-21T02:00:33;96063.88;;;17.59;100.00
43878;BME280;29815;48.184;11.268;2023-08-21T02:03:03;96065.72;;;17.64;100.00
43878;BME280;29815;48.184;11.268;2023-08-21T02:05:38;96064.09;;;17.63;100.00
43878;BME280;29815;48.184;11.268;2023-08-21T02:08:12;96062.97;;;17.64;100.00
43878;BME280;29815;48.184;11.268;2023-08-21T02:10:51;96062.97;;;17.64;100.00
43878;BME280;29815;48.184;11.268;2023-08-21T02:13:21;96067.63;;;17.64;100.00
43878;BME280;29815;48.184;11.268;2023-08-21T02:15:50;96063.28;;;17.63;100.00
43878;BME280;29815;48.184;11.268;2023-08-21T02:18:20;96064.91;;;17.64;100.00
43878;BME280;29815;48.184;11.268;2023-08-21T02:20:50;96064.63;;;17.65;100.00
43878;BME280;29815;48.184;11.268;2023-08-21T02:23:19;96063.22;;;17.68;100.00
43878;BME280;29815;48.184;11.268;2023-08-21T02:25:51;96061.22;;;17.73;100.00
43878;BME280;29815;48.184;11.268;2023-08-21T02:28:20;96062.91;;;17.83;100.00
43878;BME280;29815;48.184;11.268;2023-08-21T02:30:50;96062.81;;;17.88;100.00
43878;BME280;29815;48.184;11.268;2023-08-21T02:33:19;96062.00;;;17.87;100.00
43878;BME280;29815;48.184;11.268;2023-08-21T02:35:49;96064.22;;;17.85;100.00
43878;BME280;29815;48.184;11.268;2023-08-21T02:38:19;96061.78;;;17.84;100.00
43878;BME280;29815;48.184;11.268;2023-08-21T02:40:50;96064.00;;;17.82;100.00
43878;BME280;29815;48.184;11.268;2023-08-21T02:43:20;96069.25;;;17.78;100.00
43878;BME280;29815;48.184;11.268;2023-08-21T02:45:49;96067.34;;;17.79;100.00
43878;BME280;29815;48.184;11.268;2023-08-21T02:48:19;96072.59;;;17.75;100.00
43878;BME280;29815;48.184;11.268;2023-08-21T02:50:48;96069.09;;;17.75;100.00
43878;BME280;29815;48.184;11.268;2023-08-21T02:53:18;96071.00;;;17.74;100.00
43878;BME280;29815;48.184;11.268;2023-08-21T02:55:49;96072.09;;;17.73;100.00
43878;BME280;29815;48.184;11.268;2023-08-21T02:58:19;96073.72;;;17.74;100.00
43878;BME280;29815;48.184;11.268;2023-08-21T03:00:48;96070.50;;;17.72;100.00
43878;BME280;29815;48.184;11.268;2023-08-21T03:03:18;96072.69;;;17.70;100.00
43878;BME280;29815;48.184;11.268;2023-08-21T03:05:48;96075.72;;;17.69;100.00
43878;BME280;29815;48.184;11.268;2023-08-21T03:08:17;96075.44;;;17.70;100.00
43878;BME280;29815;48.184;11.268;2023-08-21T03:10:47;96075.63;;;17.74;100.00
43878;BME280;29815;48.184;11.268;2023-08-21T03:13:18;96071.81;;;17.75;100.00
43878;BME280;29815;48.184;11.268;2023-08-21T03:15:48;96079.16;;;17.74;100.00
43878;BME280;29815;48.184;11.268;2023-08-21T03:18:18;96076.22;;;17.71;100.00
43878;BME280;29815;48.184;11.268;2023-08-21T03:20:48;96074.13;;;17.68;100.00
43878;BME280;29815;48.184;11.268;2023-08-21T03:23:17;96084.50;;;17.66;100.00
43878;BME280;29815;48.184;11.268;2023-08-21T03:25:47;96080.44;;;17.63;100.00
43878;BME280;29815;48.184;11.268;2023-08-21T03:28:18;96082.88;;;17.65;100.00
43878;BME280;29815;48.184;11.268;2023-08-21T03:30:47;96083.16;;;17.63;100.00
43878;BME280;29815;48.184;11.268;2023-08-21T03:33:17;96074.41;;;17.66;100.00
43878;BME280;29815;48.184;11.268;2023-08-21T03:35:53;96083.38;;;17.67;100.00
43878;BME280;29815;48.184;11.268;2023-08-21T03:38:25;96088.53;;;17.68;100.00
43878;BME280;29815;48.184;11.268;2023-08-21T03:40:54;96085.00;;;17.68;100.00
43878;BME280;29815;48.184;11.268;2023-08-21T03:43:26;96081.47;;;17.67;100.00
43878;BME280;29815;48.184;11.268;2023-08-21T03:45:55;96079.84;;;17.66;100.00
43878;BME280;29815;48.184;11.268;2023-08-21T03:48:25;96079.84;;;17.66;100.00
43878;BME280;29815;48.184;11.268;2023-08-21T03:50:54;96073.59;;;17.66;100.00
43878;BME280;29815;48.184;11.268;2023-08-21T03:53:24;96072.00;;;17.65;100.00
43878;BME280;29815;48.184;11.268;2023-08-21T03:55:53;96072.78;;;17.65;100.00
43878;BME280;29815;48.184;11.268;2023-08-21T03:58:24;96083.16;;;17.63;100.00
43878;BME280;29815;48.184;11.268;2023-08-21T04:00:54;96088.59;;;17.63;100.00
43878;BME280;29815;48.184;11.268;2023-08-21T04:03:25;96094.13;;;17.58;100.00
43878;BME280;29815;48.184;11.268;2023-08-21T04:05:56;96092.59;;;17.52;100.00
43878;BME280;29815;48.184;11.268;2023-08-21T04:08:26;96092.41;;;17.48;100.00
43878;BME280;29815;48.184;11.268;2023-08-21T04:10:56;96099.56;;;17.44;100.00
43878;BME280;29815;48.184;11.268;2023-08-21T04:13:30;96096.03;;;17.44;100.00
43878;BME280;29815;48.184;11.268;2023-08-21T04:15:59;96085.97;;;17.44;100.00
43878;BME280;29815;48.184;11.268;2023-08-21T04:18:29;96093.31;;;17.44;100.00
43878;BME280;29815;48.184;11.268;2023-08-21T04:21:09;96092.81;;;17.42;100.00
43878;BME280;29815;48.184;11.268;2023-08-21T04:23:39;96097.13;;;17.43;100.00
43878;BME280;29815;48.184;11.268;2023-08-21T04:26:08;96097.13;;;17.43;100.00
43878;BME280;29815;48.184;11.268;2023-08-21T04:28:39;96093.63;;;17.42;100.00
43878;BME280;29815;48.184;11.268;2023-08-21T04:31:09;96098.25;;;17.42;100.00
43878;BME280;29815;48.184;11.268;2023-08-21T04:33:39;96099.06;;;17.42;100.00
43878;BME280;29815;48.184;11.268;2023-08-21T04:36:15;96096.94;;;17.39;100.00
43878;BME280;29815;48.184;11.268;2023-08-21T04:38:48;96095.59;;;17.37;100.00
43878;BME280;29815;48.184;11.268;2023-08-21T04:41:17;96100.84;;;17.33;100.00
43878;BME280;29815;48.184;11.268;2023-08-21T04:43:49;96105.78;;;17.31;100.00
43878;BME280;29815;48.184;11.268;2023-08-21T04:46:18;96103.34;;;17.30;100.00
43878;BME280;29815;48.184;11.268;2023-08-21T04:48:50;96113.41;;;17.29;100.00
43878;BME280;29815;48.184;11.268;2023-08-21T04:51:19;96105.25;;;17.29;100.00
43878;BME280;29815;48.184;11.268;2023-08-21T04:53:49;96109.00;;;17.33;100.00
43878;BME280;29815;48.184;11.268;2023-08-21T04:56:21;96107.31;;;17.37;100.00
43878;BME280;29815;48.184;11.268;2023-08-21T04:58:53;96110.66;;;17.48;100.00
43878;BME280;29815;48.184;11.268;2023-08-21T05:01:25;96109.50;;;17.68;100.00
43878;BME280;29815;48.184;11.268;2023-08-21T05:03:55;96115.16;;;17.85;100.00
43878;BME280;29815;48.184;11.268;2023-08-21T05:06:25;96115.47;;;17.97;100.00
43878;BME280;29815;48.184;11.268;2023-08-21T05:08:55;96114.22;;;18.17;100.00
43878;BME280;29815;48.184;11.268;2023-08-21T05:11:25;96118.06;;;18.30;100.00
43878;BME280;29815;48.184;11.268;2023-08-21T05:13:56;96115.41;;;18.38;100.00
43878;BME280;29815;48.184;11.268;2023-08-21T05:16:28;96120.16;;;18.46;100.00
43878;BME280;29815;48.184;11.268;2023-08-21T05:18:58;96116.09;;;18.57;100.00
43878;BME280;29815;48.184;11.268;2023-08-21T05:21:28;96123.66;;;18.60;100.00
43878;BME280;29815;48.184;11.268;2023-08-21T05:23:58;96126.97;;;18.71;100.00
43878;BME280;29815;48.184;11.268;2023-08-21T05:26:28;96123.66;;;18.74;100.00
43878;BME280;29815;48.184;11.268;2023-08-21T05:28:59;96121.41;;;18.76;100.00
43878;BME280;29815;48.184;11.268;2023-08-21T05:31:29;96120.00;;;18.79;100.00
43878;BME280;29815;48.184;11.268;2023-08-21T05:33:59;96122.13;;;18.82;100.00
43878;BME280;29815;48.184;11.268;2023-08-21T05:36:29;96119.88;;;18.84;100.00
43878;BME280;29815;48.184;11.268;2023-08-21T05:39:02;96120.56;;;18.89;100.00
43878;BME280;29815;48.184;11.268;2023-08-21T05:41:35;96123.56;;;19.02;100.00
43878;BME280;29815;48.184;11.268;2023-08-21T05:44:06;96123.81;;;19.14;100.00
43878;BME280;29815;48.184;11.268;2023-08-21T05:46:36;96129.94;;;19.19;100.00
43878;BME280;29815;48.184;11.268;2023-08-21T05:49:06;96127.75;;;19.30;100.00
43878;BME280;29815;48.184;11.268;2023-08-21T05:51:36;96127.03;;;19.38;100.00
43878;BME280;29815;48.184;11.268;2023-08-21T05:54:05;96134.13;;;19.48;100.00
43878;BME280;29815;48.184;11.268;2023-08-21T05:56:36;96130.19;;;19.54;100.00
43878;BME280;29815;48.184;11.268;2023-08-21T05:59:10;96129.81;;;19.69;100.00
43878;BME280;29815;48.184;11.268;2023-08-21T06:01:40;96131.94;;;19.81;100.00
43878;BME280;29815;48.184;11.268;2023-08-21T06:04:09;96132.91;;;19.85;100.00
43878;BME280;29815;48.184;11.268;2023-08-21T06:06:45;96138.56;;;19.88;100.00
43878;BME280;29815;48.184;11.268;2023-08-21T06:09:15;96132.97;;;19.93;100.00
43878;BME280;29815;48.184;11.268;2023-08-21T06:11:45;96138.25;;;19.99;100.00
43878;BME280;29815;48.184;11.268;2023-08-21T06:14:16;96141.97;;;20.03;100.00
43878;BME280;29815;48.184;11.268;2023-08-21T06:16:46;96149.41;;;20.11;100.00
43878;BME280;29815;48.184;11.268;2023-08-21T06:19:15;96152.81;;;20.16;100.00
43878;BME280;29815;48.184;11.268;2023-08-21T06:21:45;96151.56;;;20.22;100.00
43878;BME280;29815;48.184;11.268;2023-08-21T06:24:15;96146.91;;;20.32;100.00
43878;BME280;29815;48.184;11.268;2023-08-21T06:26:44;96144.56;;;20.39;100.00
43878;BME280;29815;48.184;11.268;2023-08-21T06:29:15;96154.09;;;20.50;100.00
43878;BME280;29815;48.184;11.268;2023-08-21T06:31:45;96143.94;;;20.59;100.00
43878;BME280;29815;48.184;11.268;2023-08-21T06:34:14;96145.25;;;20.70;100.00
43878;BME280;29815;48.184;11.268;2023-08-21T06:36:44;96150.25;;;20.85;100.00
43878;BME280;29815;48.184;11.268;2023-08-21T06:39:14;96146.72;;;20.93;100.00
43878;BME280;29815;48.184;11.268;2023-08-21T06:41:43;96146.22;;;21.09;100.00
43878;BME280;29815;48.184;11.268;2023-08-21T06:44:20;96140.44;;;21.19;100.00
43878;BME280;29815;48.184;11.268;2023-08-21T06:46:50;96143.06;;;21.24;100.00
43878;BME280;29815;48.184;11.268;2023-08-21T06:49:20;96151.59;;;21.31;100.00
43878;BME280;29815;48.184;11.268;2023-08-21T06:51:49;96143.03;;;21.41;100.00
43878;BME280;29815;48.184;11.268;2023-08-21T06:54:19;96150.44;;;21.49;100.00
43878;BME280;29815;48.184;11.268;2023-08-21T06:56:49;96151.03;;;21.63;100.00
43878;BME280;29815;48.184;11.268;2023-08-21T06:59:19;96146.34;;;21.73;100.00
43878;BME280;29815;48.184;11.268;2023-08-21T07:01:49;96139.72;;;21.82;100.00
43878;BME280;29815;48.184;11.268;2023-08-21T07:04:19;96150.63;;;21.91;100.00
43878;BME280;29815;48.184;11.268;2023-08-21T07:06:49;96144.03;;;22.01;100.00
43878;BME280;29815;48.184;11.268;2023-08-21T07:09:19;96148.34;;;22.10;100.00
43878;BME280;29815;48.184;11.268;2023-08-21T07:11:48;96147.97;;;22.20;100.00
43878;BME280;29815;48.184;11.268;2023-08-21T07:14:19;96155.84;;;22.31;100.00
43878;BME280;29815;48.184;11.268;2023-08-21T07:16:49;96146.44;;;22.40;100.00
43878;BME280;29815;48.184;11.268;2023-08-21T07:19:18;96150.53;;;22.55;100.00
43878;BME280;29815;48.184;11.268;2023-08-21T07:21:48;96148.22;;;22.66;100.00
43878;BME280;29815;48.184;11.268;2023-08-21T07:24:17;96147.19;;;22.79;100.00
43878;BME280;29815;48.184;11.268;2023-08-21T07:26:47;96153.56;;;22.91;100.00
43878;BME280;29815;48.184;11.268;2023-08-21T07:29:16;96157.19;;;23.04;100.00
43878;BME280;29815;48.184;11.268;2023-08-21T07:31:47;96152.47;;;23.25;100.00
43878;BME280;29815;48.184;11.268;2023-08-21T07:34:17;96152.00;;;23.44;100.00
43878;BME280;29815;48.184;11.268;2023-08-21T07:36:46;96149.66;;;23.55;100.00
43878;BME280;29815;48.184;11.268;2023-08-21T07:39:16;96152.13;;;23.69;100.00
43878;BME280;29815;48.184;11.268;2023-08-21T07:41:45;96148.38;;;23.85;100.00
43878;BME280;29815;48.184;11.268;2023-08-21T07:44:15;96150.69;;;23.95;100.00
43878;BME280;29815;48.184;11.268;2023-08-21T07:46:44;96150.25;;;24.06;100.00
43878;BME280;29815;48.184;11.268;2023-08-21T07:49:15;96157.50;;;24.22;100.00
43878;BME280;29815;48.184;11.268;2023-08-21T07:51:45;96151.66;;;24.36;100.00
43878;BME280;29815;48.184;11.268;2023-08-21T07:54:14;96152.13;;;24.50;100.00
43878;BME280;29815;48.184;11.268;2023-08-21T07:56:44;96152.34;;;24.70;100.00
43878;BME280;29815;48.184;11.268;2023-08-21T07:59:13;96144.44;;;24.80;100.00
43878;BME280;29815;48.184;11.268;2023-08-21T08:01:43;96155.88;;;24.94;100.00
43878;BME280;29815;48.184;11.268;2023-08-21T08:04:12;96148.78;;;25.06;100.00
43878;BME280;29815;48.184;11.268;2023-08-21T08:06:44;96145.97;;;25.18;100.00
43878;BME280;29815;48.184;11.268;2023-08-21T08:09:14;96150.41;;;25.35;100.00
43878;BME280;29815;48.184;11.268;2023-08-21T08:11:44;96153.31;;;25.54;100.00
43878;BME280;29815;48.184;11.268;2023-08-21T08:14:13;96151.34;;;25.67;100.00
43878;BME280;29815;48.184;11.268;2023-08-21T08:16:43;96155.63;;;25.80;100.00
43878;BME280;29815;48.184;11.268;2023-08-21T08:19:12;96153.72;;;25.96;100.00
43878;BME280;29815;48.184;11.268;2023-08-21T08:21:43;96144.97;;;26.10;100.00
43878;BME280;29815;48.184;11.268;2023-08-21T08:24:13;96145.00;;;26.25;100.00
43878;BME280;29815;48.184;11.268;2023-08-21T08:26:42;96150.91;;;26.40;100.00
43878;BME280;29815;48.184;11.268;2023-08-21T08:29:12;96146.09;;;26.52;100.00
43878;BME280;29815;48.184;11.268;2023-08-21T08:31:41;96151.56;;;26.68;100.00
43878;BME280;29815;48.184;11.268;2023-08-21T08:34:11;96149.44;;;26.77;100.00
43878;BME280;29815;48.184;11.268;2023-08-21T08:36:42;96145.13;;;26.95;100.00
43878;BME280;29815;48.184;11.268;2023-08-21T08:39:12;96152.19;;;27.12;100.00
43878;BME280;29815;48.184;11.268;2023-08-21T08:41:50;96153.69;;;27.25;100.00
43878;BME280;29815;48.184;11.268;2023-08-21T08:44:25;96150.28;;;27.32;90.82
43878;BME280;29815;48.184;11.268;2023-08-21T08:46:56;96155.56;;;27.41;91.98
43878;BME280;29815;48.184;11.268;2023-08-21T08:49:26;96155.88;;;27.55;82.26
43878;BME280;29815;48.184;11.268;2023-08-21T08:51:58;96153.34;;;27.66;87.00
43878;BME280;29815;48.184;11.268;2023-08-21T08:54:30;96161.91;;;27.80;86.81
43878;BME280;29815;48.184;11.268;2023-08-21T08:57:00;96150.38;;;27.97;73.67
43878;BME280;29815;48.184;11.268;2023-08-21T08:59:30;96158.88;;;28.08;77.91
43878;BME280;29815;48.184;11.268;2023-08-21T09:02:00;96161.03;;;28.18;77.01
43878;BME280;29815;48.184;11.268;2023-08-21T09:04:30;96156.03;;;28.23;76.78
43878;BME280;29815;48.184;11.268;2023-08-21T09:07:08;96157.44;;;28.37;78.49
43878;BME280;29815;48.184;11.268;2023-08-21T09:09:39;96152.19;;;28.54;76.54
43878;BME280;29815;48.184;11.268;2023-08-21T09:12:10;96158.34;;;28.67;75.10
43878;BME280;29815;48.184;11.268;2023-08-21T09:14:43;96156.66;;;28.85;75.07
43878;BME280;29815;48.184;11.268;2023-08-21T09:17:14;96151.72;;;28.98;73.03
43878;BME280;29815;48.184;11.268;2023-08-21T09:19:44;96159.00;;;29.10;72.85
43878;BME280;29815;48.184;11.268;2023-08-21T09:22:18;96148.00;;;29.17;71.27
43878;BME280;29815;48.184;11.268;2023-08-21T09:25:01;96145.50;;;29.38;69.91
43878;BME280;29815;48.184;11.268;2023-08-21T09:27:35;96149.69;;;29.55;70.95
43878;BME280;29815;48.184;11.268;2023-08-21T09:30:09;96145.50;;;29.68;67.16
43878;BME280;29815;48.184;11.268;2023-08-21T09:32:57;96144.47;;;29.80;67.61
43878;BME280;29815;48.184;11.268;2023-08-21T09:35:33;96151.22;;;29.82;69.28
43878;BME280;29815;48.184;11.268;2023-08-21T09:38:04;96154.50;;;29.91;67.38
43878;BME280;29815;48.184;11.268;2023-08-21T09:40:36;96153.72;;;29.94;67.62
43878;BME280;29815;48.184;11.268;2023-08-21T09:43:09;96152.31;;;30.08;67.32
43878;BME280;29815;48.184;11.268;2023-08-21T09:45:39;96151.69;;;30.25;66.33
43878;BME280;29815;48.184;11.268;2023-08-21T09:48:09;96147.47;;;30.42;66.79
43878;BME280;29815;48.184;11.268;2023-08-21T09:50:39;96141.97;;;30.49;63.61
43878;BME280;29815;48.184;11.268;2023-08-21T09:53:10;96142.50;;;30.58;64.16
43878;BME280;29815;48.184;11.268;2023-08-21T09:56:00;96134.88;;;30.55;63.61
43878;BME280;29815;48.184;11.268;2023-08-21T09:58:32;96127.00;;;30.57;62.80
43878;BME280;29815;48.184;11.268;2023-08-21T10:01:05;96132.22;;;30.62;62.81
43878;BME280;29815;48.184;11.268;2023-08-21T10:03:41;96128.34;;;30.77;60.42
43878;BME280;29815;48.184;11.268;2023-08-21T10:06:17;96125.59;;;30.81;62.44
43878;BME280;29815;48.184;11.268;2023-08-21T10:08:54;96124.06;;;30.94;62.96
43878;BME280;29815;48.184;11.268;2023-08-21T10:11:23;96122.88;;;30.95;61.91
43878;BME280;29815;48.184;11.268;2023-08-21T10:13:53;96124.97;;;31.09;62.04
43878;BME280;29815;48.184;11.268;2023-08-21T10:16:24;96121.47;;;31.15;59.88
43878;BME280;29815;48.184;11.268;2023-08-21T10:18:54;96124.63;;;31.21;60.77
43878;BME280;29815;48.184;11.268;2023-08-21T10:21:24;96113.97;;;31.30;58.72
43878;BME280;29815;48.184;11.268;2023-08-21T10:24:00;96114.38;;;31.32;59.88
43878;BME280;29815;48.184;11.268;2023-08-21T10:26:30;96115.63;;;31.42;59.16
43878;BME280;29815;48.184;11.268;2023-08-21T10:29:02;96110.09;;;31.56;58.71
43878;BME280;29815;48.184;11.268;2023-08-21T10:31:37;96108.94;;;31.64;59.70
43878;BME280;29815;48.184;11.268;2023-08-21T10:34:09;96112.16;;;31.77;59.24
43878;BME280;29815;48.184;11.268;2023-08-21T10:37:05;96113.41;;;31.86;58.52
43878;BME280;29815;48.184;11.268;2023-08-21T10:39:53;96110.25;;;32.06;58.44
43878;BME280;29815;48.184;11.268;2023-08-21T10:42:38;96107.09;;;32.18;55.31
43878;BME280;29815;48.184;11.268;2023-08-21T10:45:13;96109.88;;;32.18;57.10
43878;BME280;29815;48.184;11.268;2023-08-21T10:47:42;96111.50;;;32.22;56.54
43878;BME280;29815;48.184;11.268;2023-08-21T10:50:15;96118.59;;;32.09;53.56
43878;BME280;29815;48.184;11.268;2023-08-21T10:52:44;96115.81;;;32.09;53.11
43878;BME280;29815;48.184;11.268;2023-08-21T10:55:16;96107.88;;;32.18;54.60
43878;BME280;29815;48.184;11.268;2023-08-21T10:57:49;96115.47;;;32.36;53.08
43878;BME280;29815;48.184;11.268;2023-08-21T11:00:19;96124.66;;;32.47;46.82
43878;BME280;29815;48.184;11.268;2023-08-21T11:02:49;96113.91;;;32.52;47.91
43878;BME280;29815;48.184;11.268;2023-08-21T11:05:19;96112.28;;;32.62;47.82
43878;BME280;29815;48.184;11.268;2023-08-21T11:07:49;96114.28;;;32.69;47.50
43878;BME280;29815;48.184;11.268;2023-08-21T11:10:23;96113.47;;;32.86;48.15
43878;BME280;29815;48.184;11.268;2023-08-21T11:12:55;96121.44;;;32.91;50.98
43878;BME280;29815;48.184;11.268;2023-08-21T11:15:28;96119.44;;;33.02;48.55
43878;BME280;29815;48.184;11.268;2023-08-21T11:18:00;96115.44;;;33.07;49.76
43878;BME280;29815;48.184;11.268;2023-08-21T11:20:32;96110.59;;;33.25;50.89
43878;BME280;29815;48.184;11.268;2023-08-21T11:23:04;96122.16;;;33.23;49.40
43878;BME280;29815;48.184;11.268;2023-08-21T11:25:38;96116.94;;;33.40;50.02
43878;BME280;29815;48.184;11.268;2023-08-21T11:28:09;96118.16;;;33.39;48.11
43878;BME280;29815;48.184;11.268;2023-08-21T11:30:39;96117.34;;;33.42;47.39
43878;BME280;29815;48.184;11.268;2023-08-21T11:33:09;96112.53;;;33.49;47.38
43878;BME280;29815;48.184;11.268;2023-08-21T11:35:40;96112.88;;;33.62;48.26
43878;BME280;29815;48.184;11.268;2023-08-21T11:38:16;96104.06;;;33.67;47.17
43878;BME280;29815;48.184;11.268;2023-08-21T11:40:56;96104.84;;;33.82;47.40
43878;BME280;29815;48.184;11.268;2023-08-21T11:43:38;96105.63;;;33.82;49.36
43878;BME280;29815;48.184;11.268;2023-08-21T11:46:09;96106.78;;;33.88;49.53
43878;BME280;29815;48.184;11.268;2023-08-21T11:48:41;96107.59;;;33.85;47.29
43878;BME280;29815;48.184;11.268;2023-08-21T11:51:11;96102.00;;;33.89;47.92
43878;BME280;29815;48.184;11.268;2023-08-21T11:53:42;96100.31;;;34.02;47.62
43878;BME280;29815;48.184;11.268;2023-08-21T11:56:14;96102.69;;;34.07;46.07
43878;BME280;29815;48.184;11.268;2023-08-21T11:58:45;96097.84;;;34.15;47.15
43878;BME280;29815;48.184;11.268;2023-08-21T12:01:17;96089.31;;;34.36;48.56
43878;BME280;29815;48.184;11.268;2023-08-21T12:03:47;96101.53;;;34.56;48.23
43878;BME280;29815;48.184;11.268;2023-08-21T12:06:24;96090.63;;;34.69;45.25
43878;BME280;29815;48.184;11.268;2023-08-21T12:08:54;96091.44;;;34.70;46.25
43878;BME280;29815;48.184;11.268;2023-08-21T12:11:26;96087.75;;;34.76;45.95
43878;BME280;29815;48.184;11.268;2023-08-21T12:13:55;96086.06;;;34.89;46.04
43878;BME280;29815;48.184;11.268;2023-08-21T12:16:25;96094.69;;;35.06;45.61
43878;BME280;29815;48.184;11.268;2023-08-21T12:18:54;96088.53;;;35.21;45.21
43878;BME280;29815;48.184;11.268;2023-08-21T12:21:25;96090.72;;;35.41;45.06
43878;BME280;29815;48.184;11.268;2023-08-21T12:23:55;96083.81;;;35.49;47.00
43878;BME280;29815;48.184;11.268;2023-08-21T12:26:26;96083.56;;;35.67;45.02
43878;BME280;29815;48.184;11.268;2023-08-21T12:29:04;96081.34;;;35.54;43.61
43878;BME280;29815;48.184;11.268;2023-08-21T12:31:33;96082.50;;;35.57;44.54
43878;BME280;29815;48.184;11.268;2023-08-21T12:34:05;96083.09;;;35.41;45.77
43878;BME280;29815;48.184;11.268;2023-08-21T12:36:35;96073.84;;;35.48;42.08
43878;BME280;29815;48.184;11.268;2023-08-21T12:39:07;96075.03;;;35.47;43.48
43878;BME280;29815;48.184;11.268;2023-08-21T12:41:38;96075.41;;;35.49;43.44
43878;BME280;29815;48.184;11.268;2023-08-21T12:44:08;96068.03;;;35.62;43.81
43878;BME280;29815;48.184;11.268;2023-08-21T12:46:37;96064.81;;;35.63;42.63
43878;BME280;29815;48.184;11.268;2023-08-21T12:49:07;96052.69;;;35.74;42.65
43878;BME280;29815;48.184;11.268;2023-08-21T12:51:36;96059.81;;;36.09;44.76
43878;BME280;29815;48.184;11.268;2023-08-21T12:54:06;96059.66;;;36.43;44.48
43878;BME280;29815;48.184;11.268;2023-08-21T12:56:38;96055.53;;;36.74;42.15
43878;BME280;29815;48.184;11.268;2023-08-21T12:59:08;96054.94;;;36.86;41.34
43878;BME280;29815;48.184;11.268;2023-08-21T13:01:38;96062.19;;;36.84;40.09
43878;BME280;29815;48.184;11.268;2023-08-21T13:04:07;96057.16;;;36.95;40.54